Weather at Mosside Farm Airstrip

Public forecast

Using degrees Celsius for public forecast. Weather courtesy of forecast.io.

Closest aviation weather report (METAR) to Mosside Farm Airstrip

Closest report is Edinburgh Airport, 19.3 nm (35.8 km) NE.

2024/05/30 21:50 (retrieved 27 minutes ago)

EGPH 302150Z 35004KT 310V020 CAVOK 14/09 Q1019

Closest aviation forecast (TAF) to Mosside Farm Airstrip

Closest forecast is Edinburgh Airport, 19.3 nm (35.8 km) NE.

2024/05/30 18:00 (retrieved 4 hours ago)

TAF EGPH 301657Z 3018/3118 34004KT 9999 SCT040 BECMG 3113/3116 04010KT